createdAt,value
2023-02-01T00:01:35.042Z,3.99
2023-02-01T00:06:04.757Z,3.95
2023-02-01T00:32:51.653Z,4.02
2023-02-01T00:37:20.390Z,4.06
2023-02-01T00:42:05.430Z,4.11
2023-02-01T00:46:21.387Z,4.14
2023-02-01T00:50:52.121Z,4.18
2023-02-01T01:29:52.351Z,4.10
2023-02-01T01:34:17.615Z,4.08
2023-02-01T01:38:39.722Z,4.04
2023-02-01T01:42:59.290Z,4.01
2023-02-01T01:47:11.900Z,4.00
2023-02-01T01:51:41.091Z,4.00
2023-02-01T01:56:11.597Z,3.99
2023-02-01T02:18:11.803Z,4.14
2023-02-01T02:22:42.906Z,4.15
2023-02-01T02:27:12.123Z,4.16
2023-02-01T02:47:37.487Z,4.18
2023-02-01T02:52:11.252Z,4.15
2023-02-01T02:56:38.930Z,4.12
2023-02-01T03:01:05.141Z,4.10
2023-02-01T03:05:27.281Z,4.10
2023-02-01T03:09:56.331Z,4.08
2023-02-01T03:14:34.466Z,4.09
2023-02-01T03:46:33.551Z,4.16
2023-02-01T03:51:01.798Z,4.18
2023-02-01T03:55:30.785Z,4.20
2023-02-01T04:00:01.157Z,4.21
2023-02-01T04:17:51.753Z,4.20
2023-02-01T04:22:21.114Z,4.16
2023-02-01T04:30:39.273Z,4.17
2023-02-01T04:35:08.780Z,4.15
2023-02-01T04:39:38.172Z,4.12
2023-02-01T04:43:50.205Z,4.13
2023-02-01T04:48:07.822Z,4.13
2023-02-01T04:52:12.613Z,4.15
2023-02-01T05:13:17.190Z,4.19
2023-02-01T05:17:46.052Z,4.14
2023-02-01T05:47:51.728Z,3.92
2023-02-01T05:52:21.090Z,3.88
2023-02-01T05:56:50.333Z,3.85
2023-02-01T06:01:25.093Z,3.82
2023-02-01T06:30:49.758Z,4.09
2023-02-01T06:35:19.491Z,4.11
2023-02-01T06:39:39.060Z,4.15
2023-02-01T06:44:06.696Z,4.18
2023-02-01T06:48:37.322Z,4.21
2023-02-01T06:53:08.291Z,4.26
2023-02-01T07:01:19.177Z,4.36
2023-02-01T07:05:29.561Z,4.39
2023-02-01T07:09:33.842Z,4.41
2023-02-01T07:13:56.873Z,4.43
2023-02-01T07:46:45.966Z,4.52
2023-02-01T07:50:58.409Z,4.54
2023-02-01T07:55:27.977Z,4.58
2023-02-01T07:59:50.981Z,4.63
2023-02-01T08:03:45.751Z,4.69
2023-02-01T08:08:07.512Z,4.76
2023-02-01T08:20:54.232Z,4.89
2023-02-01T10:37:13.391Z,5.57
2023-02-01T10:44:48.293Z,5.48
2023-02-01T10:48:50.449Z,5.53
2023-02-01T10:53:13.352Z,5.63
2023-02-01T10:57:30.387Z,5.78
2023-02-01T11:05:44.704Z,6.04
2023-02-01T11:18:15.273Z,6.04
2023-02-01T11:22:44.892Z,6.10
2023-02-01T11:31:35.144Z,6.27
2023-02-01T11:36:04.797Z,6.18
2023-02-01T12:01:14.343Z,5.71
2023-02-01T12:05:41.815Z,5.61
2023-02-01T12:10:23.250Z,5.52
2023-02-01T12:15:10.800Z,5.42
2023-02-01T12:19:42.254Z,5.37
2023-02-01T12:24:08.147Z,5.43
2023-02-01T13:12:30.205Z,4.85
2023-02-01T13:17:03.122Z,4.77
2023-02-01T13:21:27.001Z,4.66
2023-02-01T13:25:30.636Z,4.55
2023-02-01T13:30:04.043Z,4.48
2023-02-01T13:34:51.670Z,4.59
2023-02-01T13:39:22.000Z,4.68
2023-02-01T14:26:26.583Z,4.17
2023-02-01T14:30:31.539Z,4.11
2023-02-01T14:34:28.270Z,4.04
2023-02-01T14:38:55.693Z,3.96
2023-02-01T14:43:02.357Z,3.89
2023-02-01T14:47:03.758Z,3.84
2023-02-01T14:51:12.698Z,3.82
2023-02-01T14:55:36.357Z,3.83
2023-02-01T15:00:02.665Z,3.88
2023-02-01T15:04:56.306Z,3.95
2023-02-01T15:09:05.298Z,4.02
2023-02-01T15:13:18.000Z,4.04
2023-02-01T15:21:55.430Z,4.11
2023-02-01T15:57:13.491Z,4.28
2023-02-01T16:01:35.502Z,4.29
2023-02-01T16:06:05.742Z,4.30
2023-02-01T16:10:41.104Z,4.31
2023-02-01T16:15:03.265Z,4.36
2023-02-01T16:19:33.462Z,4.41
2023-02-01T16:42:29.130Z,4.62
2023-02-01T16:46:58.551Z,4.59
2023-02-01T16:55:51.254Z,4.54
2023-02-01T17:17:38.460Z,4.42
2023-02-01T17:22:07.065Z,4.40
2023-02-01T17:26:30.073Z,4.38
2023-02-01T17:31:00.782Z,4.36
2023-02-01T17:35:21.120Z,4.33
2023-02-01T17:38:15.900Z,4.30
2023-02-01T17:50:45.601Z,4.18
2023-02-01T18:12:11.890Z,4.15
2023-02-01T18:16:33.694Z,4.14
2023-02-01T18:21:01.001Z,4.15
2023-02-01T18:25:24.756Z,4.15
2023-02-01T18:29:55.265Z,4.15
2023-02-01T18:46:43.041Z,4.21
2023-02-01T18:51:02.746Z,4.19
2023-02-01T18:55:32.082Z,4.18
2023-02-01T19:00:04.233Z,4.19
2023-02-01T19:04:25.993Z,4.20
2023-02-01T19:30:54.394Z,4.25
2023-02-01T19:35:24.144Z,4.26
2023-02-01T19:39:54.045Z,4.27
2023-02-01T19:44:23.905Z,4.26
2023-02-01T19:48:35.374Z,4.27
2023-02-01T19:52:56.501Z,4.28
2023-02-01T19:57:26.038Z,4.27
2023-02-01T20:01:47.493Z,4.25
2023-02-01T20:06:18.943Z,4.22
2023-02-01T20:10:41.404Z,4.22
2023-02-01T20:15:11.795Z,4.26
2023-02-01T20:19:43.552Z,4.29
2023-02-01T20:24:13.935Z,4.35
2023-02-01T20:33:08.219Z,4.42
2023-02-01T21:08:57.536Z,4.61
2023-02-01T21:13:05.343Z,4.58
2023-02-01T21:17:35.009Z,4.60
2023-02-01T21:43:21.198Z,4.66
2023-02-01T21:47:50.558Z,4.65
2023-02-01T21:51:54.060Z,4.65
2023-02-01T21:56:03.145Z,4.64
2023-02-01T22:00:32.505Z,4.61
2023-02-01T22:04:57.011Z,4.59
2023-02-01T22:26:13.375Z,4.63
2023-02-01T22:30:42.804Z,4.64
2023-02-01T22:35:03.250Z,4.66
2023-02-01T22:39:35.544Z,4.70
2023-02-01T22:56:42.312Z,4.86
2023-02-01T23:01:12.122Z,4.87
2023-02-01T23:05:41.893Z,4.87
2023-02-01T23:27:59.882Z,5.01
2023-02-01T23:32:30.137Z,5.02
2023-02-01T23:49:50.670Z,5.02
2023-02-01T23:54:19.580Z,5.03
2023-02-01T23:58:48.193Z,5.03
